sensor_id;sensor_type;location;lat;lon;timestamp;P1;durP1;ratioP1;P2;durP2;ratioP2
32491;SDS011;20605;49.742;18.802;2022-08-19T17:55:58;8.68;;;7.87;;
32491;SDS011;20605;49.742;18.802;2022-08-19T17:58:25;11.28;;;8.23;;
32491;SDS011;20605;49.742;18.802;2022-08-19T18:00:52;12.03;;;7.80;;
32491;SDS011;20605;49.742;18.802;2022-08-19T18:03:19;15.48;;;8.53;;
32491;SDS011;20605;49.742;18.802;2022-08-19T18:05:46;13.48;;;8.90;;
32491;SDS011;20605;49.742;18.802;2022-08-19T18:08:15;14.43;;;9.03;;
32491;SDS011;20605;49.742;18.802;2022-08-19T18:10:41;15.60;;;9.18;;
32491;SDS011;20605;49.742;18.802;2022-08-19T18:13:08;13.28;;;8.65;;
32491;SDS011;20605;49.742;18.802;2022-08-19T18:15:38;10.23;;;8.70;;
32491;SDS011;20605;49.742;18.802;2022-08-19T18:18:06;11.48;;;8.13;;
32491;SDS011;20605;49.742;18.802;2022-08-19T18:20:35;10.72;;;7.83;;
32491;SDS011;20605;49.742;18.802;2022-08-19T18:23:03;11.35;;;8.28;;
32491;SDS011;20605;49.742;18.802;2022-08-19T18:25:30;13.75;;;8.55;;
32491;SDS011;20605;49.742;18.802;2022-08-19T18:27:58;12.00;;;9.20;;
32491;SDS011;20605;49.742;18.802;2022-08-19T18:30:29;12.35;;;8.55;;
32491;SDS011;20605;49.742;18.802;2022-08-19T18:32:59;12.15;;;9.28;;
32491;SDS011;20605;49.742;18.802;2022-08-19T18:35:29;14.13;;;9.38;;
32491;SDS011;20605;49.742;18.802;2022-08-19T18:38:00;13.83;;;8.78;;
32491;SDS011;20605;49.742;18.802;2022-08-19T18:40:28;14.47;;;9.53;;
32491;SDS011;20605;49.742;18.802;2022-08-19T18:43:13;13.60;;;9.25;;
32491;SDS011;20605;49.742;18.802;2022-08-19T18:45:52;11.43;;;8.88;;
32491;SDS011;20605;49.742;18.802;2022-08-19T18:48:37;14.33;;;9.68;;
32491;SDS011;20605;49.742;18.802;2022-08-19T18:51:28;16.48;;;9.43;;
32491;SDS011;20605;49.742;18.802;2022-08-19T18:53:59;11.88;;;9.05;;
32491;SDS011;20605;49.742;18.802;2022-08-19T18:56:30;14.95;;;9.30;;
32491;SDS011;20605;49.742;18.802;2022-08-19T18:58:58;13.38;;;9.48;;
32491;SDS011;20605;49.742;18.802;2022-08-19T19:01:35;12.05;;;9.58;;
32491;SDS011;20605;49.742;18.802;2022-08-19T19:04:05;14.87;;;9.88;;
32491;SDS011;20605;49.742;18.802;2022-08-19T19:06:38;14.07;;;9.18;;
32491;SDS011;20605;49.742;18.802;2022-08-19T19:09:14;15.98;;;9.38;;
32491;SDS011;20605;49.742;18.802;2022-08-19T19:11:44;14.00;;;9.70;;
32491;SDS011;20605;49.742;18.802;2022-08-19T19:14:20;13.70;;;9.58;;
32491;SDS011;20605;49.742;18.802;2022-08-19T19:19:17;15.68;;;9.58;;
32491;SDS011;20605;49.742;18.802;2022-08-19T19:21:46;11.20;;;9.05;;
32491;SDS011;20605;49.742;18.802;2022-08-19T19:24:15;17.07;;;9.88;;
32491;SDS011;20605;49.742;18.802;2022-08-19T19:26:45;16.30;;;9.03;;
32491;SDS011;20605;49.742;18.802;2022-08-19T19:29:15;14.43;;;9.88;;
32491;SDS011;20605;49.742;18.802;2022-08-19T19:31:43;16.30;;;10.00;;
32491;SDS011;20605;49.742;18.802;2022-08-19T19:34:10;17.10;;;10.82;;
32491;SDS011;20605;49.742;18.802;2022-08-19T19:36:39;13.62;;;9.68;;
32491;SDS011;20605;49.742;18.802;2022-08-19T19:39:06;13.10;;;10.05;;
32491;SDS011;20605;49.742;18.802;2022-08-19T19:41:33;12.47;;;9.60;;
32491;SDS011;20605;49.742;18.802;2022-08-19T19:44:01;13.83;;;9.45;;
32491;SDS011;20605;49.742;18.802;2022-08-19T19:46:30;13.75;;;10.65;;
32491;SDS011;20605;49.742;18.802;2022-08-19T19:48:58;15.55;;;10.03;;
32491;SDS011;20605;49.742;18.802;2022-08-19T19:51:25;16.37;;;9.68;;
32491;SDS011;20605;49.742;18.802;2022-08-19T19:53:52;15.25;;;10.70;;
32491;SDS011;20605;49.742;18.802;2022-08-19T19:56:19;13.50;;;10.30;;
32491;SDS011;20605;49.742;18.802;2022-08-19T19:58:48;13.25;;;9.58;;
32491;SDS011;20605;49.742;18.802;2022-08-19T20:01:18;17.20;;;11.40;;
32491;SDS011;20605;49.742;18.802;2022-08-19T20:03:46;17.57;;;10.75;;
32491;SDS011;20605;49.742;18.802;2022-08-19T20:06:20;15.20;;;10.30;;
32491;SDS011;20605;49.742;18.802;2022-08-19T20:08:45;16.70;;;10.43;;
32491;SDS011;20605;49.742;18.802;2022-08-19T20:11:47;15.38;;;9.63;;
32491;SDS011;20605;49.742;18.802;2022-08-19T20:17:14;16.85;;;10.58;;
32491;SDS011;20605;49.742;18.802;2022-08-19T20:19:40;13.20;;;10.82;;
32491;SDS011;20605;49.742;18.802;2022-08-19T20:22:09;13.70;;;9.13;;
32491;SDS011;20605;49.742;18.802;2022-08-19T20:24:43;14.43;;;9.60;;
32491;SDS011;20605;49.742;18.802;2022-08-19T20:27:13;13.03;;;9.35;;
32491;SDS011;20605;49.742;18.802;2022-08-19T20:29:43;19.77;;;10.68;;
32491;SDS011;20605;49.742;18.802;2022-08-19T20:32:09;9.90;;;8.88;;
32491;SDS011;20605;49.742;18.802;2022-08-19T20:34:38;12.98;;;9.18;;
32491;SDS011;20605;49.742;18.802;2022-08-19T20:37:06;12.58;;;9.25;;
32491;SDS011;20605;49.742;18.802;2022-08-19T20:39:46;11.90;;;9.78;;
32491;SDS011;20605;49.742;18.802;2022-08-19T20:42:42;13.00;;;9.88;;
32491;SDS011;20605;49.742;18.802;2022-08-19T20:45:13;11.85;;;9.80;;
32491;SDS011;20605;49.742;18.802;2022-08-19T20:47:40;17.57;;;10.08;;
32491;SDS011;20605;49.742;18.802;2022-08-19T20:50:08;17.00;;;9.98;;
32491;SDS011;20605;49.742;18.802;2022-08-19T20:52:40;12.43;;;9.30;;
32491;SDS011;20605;49.742;18.802;2022-08-19T20:55:11;14.15;;;9.23;;
32491;SDS011;20605;49.742;18.802;2022-08-19T20:57:43;13.45;;;9.98;;
32491;SDS011;20605;49.742;18.802;2022-08-19T21:00:11;14.63;;;10.53;;
32491;SDS011;20605;49.742;18.802;2022-08-19T21:02:45;12.50;;;9.88;;
32491;SDS011;20605;49.742;18.802;2022-08-19T21:05:24;15.80;;;9.73;;
32491;SDS011;20605;49.742;18.802;2022-08-19T21:07:53;15.40;;;10.00;;
32491;SDS011;20605;49.742;18.802;2022-08-19T21:10:20;11.22;;;9.73;;
32491;SDS011;20605;49.742;18.802;2022-08-19T21:12:47;15.80;;;10.32;;
32491;SDS011;20605;49.742;18.802;2022-08-19T21:15:14;13.35;;;10.20;;
32491;SDS011;20605;49.742;18.802;2022-08-19T21:17:41;13.75;;;9.30;;
32491;SDS011;20605;49.742;18.802;2022-08-19T21:20:08;16.45;;;9.33;;
32491;SDS011;20605;49.742;18.802;2022-08-19T21:22:35;10.20;;;9.00;;
32491;SDS011;20605;49.742;18.802;2022-08-19T21:25:02;11.78;;;9.00;;
32491;SDS011;20605;49.742;18.802;2022-08-19T21:27:30;13.15;;;10.10;;
32491;SDS011;20605;49.742;18.802;2022-08-19T21:29:57;11.33;;;9.73;;
32491;SDS011;20605;49.742;18.802;2022-08-19T21:32:24;17.85;;;10.40;;
32491;SDS011;20605;49.742;18.802;2022-08-19T21:34:50;12.23;;;10.10;;
32491;SDS011;20605;49.742;18.802;2022-08-19T21:37:17;14.75;;;9.83;;
32491;SDS011;20605;49.742;18.802;2022-08-19T21:39:44;12.55;;;9.13;;
32491;SDS011;20605;49.742;18.802;2022-08-19T21:42:11;13.98;;;8.88;;
32491;SDS011;20605;49.742;18.802;2022-08-19T21:44:39;13.72;;;9.80;;
32491;SDS011;20605;49.742;18.802;2022-08-19T21:47:06;13.28;;;10.28;;
32491;SDS011;20605;49.742;18.802;2022-08-19T21:49:33;14.93;;;10.60;;
32491;SDS011;20605;49.742;18.802;2022-08-19T21:51:59;14.70;;;10.82;;
32491;SDS011;20605;49.742;18.802;2022-08-19T21:54:26;17.62;;;10.65;;
32491;SDS011;20605;49.742;18.802;2022-08-19T21:56:53;16.25;;;11.80;;
32491;SDS011;20605;49.742;18.802;2022-08-19T21:59:20;17.32;;;12.47;;
32491;SDS011;20605;49.742;18.802;2022-08-19T22:01:46;15.93;;;11.97;;
32491;SDS011;20605;49.742;18.802;2022-08-19T22:04:13;15.23;;;11.60;;
32491;SDS011;20605;49.742;18.802;2022-08-19T22:06:40;18.32;;;10.78;;
32491;SDS011;20605;49.742;18.802;2022-08-19T22:09:07;14.78;;;10.30;;
32491;SDS011;20605;49.742;18.802;2022-08-19T22:11:34;14.23;;;10.30;;
32491;SDS011;20605;49.742;18.802;2022-08-19T22:14:01;13.18;;;10.45;;
32491;SDS011;20605;49.742;18.802;2022-08-19T22:16:27;13.13;;;9.83;;
32491;SDS011;20605;49.742;18.802;2022-08-19T22:18:54;14.50;;;9.95;;
32491;SDS011;20605;49.742;18.802;2022-08-19T22:21:21;13.58;;;9.83;;
32491;SDS011;20605;49.742;18.802;2022-08-19T22:23:47;12.07;;;9.30;;
32491;SDS011;20605;49.742;18.802;2022-08-19T22:26:14;16.97;;;9.60;;
32491;SDS011;20605;49.742;18.802;2022-08-19T22:28:42;19.02;;;9.63;;
32491;SDS011;20605;49.742;18.802;2022-08-19T22:31:09;16.15;;;9.78;;
32491;SDS011;20605;49.742;18.802;2022-08-19T22:33:37;14.05;;;9.55;;
32491;SDS011;20605;49.742;18.802;2022-08-19T22:36:04;12.07;;;9.10;;
32491;SDS011;20605;49.742;18.802;2022-08-19T22:38:32;18.05;;;9.10;;
32491;SDS011;20605;49.742;18.802;2022-08-19T22:41:00;13.75;;;9.25;;
32491;SDS011;20605;49.742;18.802;2022-08-19T22:43:27;14.45;;;9.05;;
32491;SDS011;20605;49.742;18.802;2022-08-19T22:45:57;14.28;;;9.13;;
32491;SDS011;20605;49.742;18.802;2022-08-19T22:48:26;16.95;;;10.25;;
32491;SDS011;20605;49.742;18.802;2022-08-19T22:50:55;11.83;;;9.53;;
32491;SDS011;20605;49.742;18.802;2022-08-19T22:56:16;15.72;;;9.40;;
32491;SDS011;20605;49.742;18.802;2022-08-19T22:58:44;12.33;;;8.95;;
32491;SDS011;20605;49.742;18.802;2022-08-19T23:01:12;12.63;;;9.40;;
32491;SDS011;20605;49.742;18.802;2022-08-19T23:03:40;13.25;;;9.95;;
32491;SDS011;20605;49.742;18.802;2022-08-19T23:06:07;13.93;;;9.75;;
32491;SDS011;20605;49.742;18.802;2022-08-19T23:08:35;11.75;;;9.48;;
32491;SDS011;20605;49.742;18.802;2022-08-19T23:11:04;12.30;;;8.95;;
32491;SDS011;20605;49.742;18.802;2022-08-19T23:13:31;16.10;;;9.65;;
32491;SDS011;20605;49.742;18.802;2022-08-19T23:15:58;12.65;;;9.10;;
32491;SDS011;20605;49.742;18.802;2022-08-19T23:18:25;15.98;;;9.60;;
32491;SDS011;20605;49.742;18.802;2022-08-19T23:20:51;13.43;;;9.20;;
32491;SDS011;20605;49.742;18.802;2022-08-19T23:23:19;13.25;;;9.08;;
32491;SDS011;20605;49.742;18.802;2022-08-19T23:25:49;12.35;;;9.00;;
32491;SDS011;20605;49.742;18.802;2022-08-19T23:28:17;15.08;;;9.98;;
32491;SDS011;20605;49.742;18.802;2022-08-19T23:31:04;12.63;;;9.13;;
32491;SDS011;20605;49.742;18.802;2022-08-19T23:33:36;15.58;;;9.63;;
32491;SDS011;20605;49.742;18.802;2022-08-19T23:36:11;14.30;;;9.83;;
32491;SDS011;20605;49.742;18.802;2022-08-19T23:38:39;16.55;;;10.00;;
32491;SDS011;20605;49.742;18.802;2022-08-19T23:41:08;10.28;;;8.38;;
32491;SDS011;20605;49.742;18.802;2022-08-19T23:43:37;14.03;;;9.23;;
32491;SDS011;20605;49.742;18.802;2022-08-19T23:46:06;11.48;;;8.40;;
32491;SDS011;20605;49.742;18.802;2022-08-19T23:48:36;13.03;;;8.43;;
32491;SDS011;20605;49.742;18.802;2022-08-19T23:51:06;12.20;;;8.13;;
32491;SDS011;20605;49.742;18.802;2022-08-19T23:53:36;13.08;;;8.18;;
32491;SDS011;20605;49.742;18.802;2022-08-19T23:56:06;12.98;;;7.70;;
32491;SDS011;20605;49.742;18.802;2022-08-19T23:58:35;11.08;;;8.30;;
